createdAt,value
2018-04-28T00:02:19.879Z,7.93
2018-04-28T00:04:48.785Z,10.50
2018-04-28T00:07:16.915Z,5.63
2018-04-28T00:09:45.037Z,9.23
2018-04-28T00:12:13.193Z,6.13
2018-04-28T00:14:42.202Z,9.47
2018-04-28T00:17:19.116Z,8.80
2018-04-28T00:19:50.628Z,6.40
2018-04-28T00:22:21.743Z,8.93
2018-04-28T00:24:54.342Z,6.33
2018-04-28T00:27:25.019Z,8.40
2018-04-28T00:29:54.865Z,8.10
2018-04-28T00:32:22.984Z,11.00
2018-04-28T00:35:08.664Z,7.90
2018-04-28T00:37:43.605Z,7.53
2018-04-28T00:40:24.029Z,8.10
2018-04-28T00:42:56.359Z,6.67
2018-04-28T00:48:26.502Z,6.63
2018-04-28T00:50:55.344Z,6.33
2018-04-28T00:53:24.173Z,6.93
2018-04-28T00:58:57.181Z,9.17
2018-04-28T01:01:39.156Z,10.20
2018-04-28T01:04:12.008Z,11.80
2018-04-28T01:06:40.912Z,10.27
2018-04-28T01:09:09.052Z,7.93
2018-04-28T01:11:40.758Z,10.50
2018-04-28T01:14:12.729Z,12.33
2018-04-28T01:16:50.668Z,9.50
2018-04-28T01:19:25.600Z,6.70
2018-04-28T01:21:53.720Z,8.23
2018-04-28T01:24:31.424Z,8.87
2018-04-28T01:30:33.918Z,9.90
2018-04-28T01:33:26.872Z,9.43
2018-04-28T01:36:10.838Z,10.80
2018-04-28T01:38:40.692Z,7.17
2018-04-28T01:41:18.435Z,7.73
2018-04-28T01:44:04.262Z,10.73
2018-04-28T01:46:36.965Z,10.90
2018-04-28T01:49:08.848Z,8.57
2018-04-28T01:54:32.880Z,11.13
2018-04-28T02:00:06.101Z,8.23
2018-04-28T02:02:38.887Z,8.23
2018-04-28T02:05:08.592Z,9.63
2018-04-28T02:07:37.644Z,10.83
2018-04-28T02:10:05.817Z,8.27
2018-04-28T02:15:52.236Z,7.77
2018-04-28T02:18:41.744Z,11.93
2018-04-28T02:21:15.822Z,7.77
2018-04-28T02:23:49.756Z,8.27
2018-04-28T02:26:30.618Z,8.73
2018-04-28T02:29:10.348Z,9.30
2018-04-28T02:34:37.824Z,11.07
2018-04-28T02:37:12.660Z,8.67
2018-04-28T02:39:56.397Z,9.77
2018-04-28T02:42:34.396Z,7.90
2018-04-28T02:45:02.528Z,9.53
2018-04-28T02:47:30.654Z,11.73
2018-04-28T02:50:01.670Z,9.87
2018-04-28T02:52:39.646Z,7.17
2018-04-28T02:58:24.242Z,7.47
2018-04-28T03:01:08.942Z,9.13
2018-04-28T03:03:38.036Z,8.27
2018-04-28T03:06:09.068Z,10.10
2018-04-28T03:08:39.617Z,7.80
2018-04-28T03:11:09.534Z,7.80
2018-04-28T03:13:43.420Z,9.93
2018-04-28T03:16:22.552Z,5.77
2018-04-28T03:18:50.671Z,8.07
2018-04-28T03:21:18.797Z,7.40
2018-04-28T03:23:57.561Z,8.67
2018-04-28T03:26:28.566Z,6.67
2018-04-28T03:29:18.140Z,8.77
2018-04-28T03:31:48.787Z,6.67
2018-04-28T03:34:35.828Z,5.40
2018-04-28T03:37:24.838Z,7.73
2018-04-28T03:42:58.441Z,10.77
2018-04-28T03:45:29.041Z,9.10
2018-04-28T03:51:06.141Z,7.60
2018-04-28T03:53:36.281Z,8.93
2018-04-28T03:56:04.979Z,11.03
2018-04-28T03:58:45.826Z,8.40
2018-04-28T04:01:25.927Z,11.70
2018-04-28T04:04:00.695Z,7.17
2018-04-28T04:06:33.346Z,8.43
2018-04-28T04:09:07.194Z,11.70
2018-04-28T04:14:50.544Z,9.00
2018-04-28T04:17:43.216Z,10.00
2018-04-28T04:20:20.880Z,13.13
2018-04-28T04:22:55.626Z,10.20
2018-04-28T04:25:39.616Z,9.90
2018-04-28T04:28:08.548Z,7.53
2018-04-28T04:30:47.424Z,7.77
2018-04-28T04:33:31.376Z,7.87
2018-04-28T04:36:05.606Z,7.50
2018-04-28T04:38:37.284Z,13.40
2018-04-28T04:41:11.350Z,16.47
2018-04-28T04:47:08.058Z,6.87
2018-04-28T04:49:40.696Z,8.83
2018-04-28T04:52:09.630Z,6.17
2018-04-28T04:54:43.701Z,6.73
2018-04-28T05:00:39.264Z,7.90
2018-04-28T05:03:17.028Z,8.90
2018-04-28T05:09:11.524Z,8.17
2018-04-28T05:12:18.925Z,7.33
2018-04-28T05:15:05.482Z,10.47
2018-04-28T05:17:44.518Z,6.50
2018-04-28T05:20:21.750Z,9.47
2018-04-28T05:23:12.552Z,6.40
2018-04-28T05:26:01.438Z,9.07
2018-04-28T05:31:50.177Z,9.20
2018-04-28T05:34:30.820Z,7.13
2018-04-28T05:37:16.687Z,11.50
2018-04-28T05:43:00.020Z,7.83
2018-04-28T05:45:40.153Z,7.10
2018-04-28T05:48:20.168Z,4.80
2018-04-28T05:50:52.869Z,7.63
2018-04-28T05:53:34.699Z,9.03
2018-04-28T05:59:23.975Z,6.97
2018-04-28T06:01:58.940Z,9.53
2018-04-28T06:04:45.449Z,9.23
2018-04-28T06:07:30.379Z,11.33
2018-04-28T06:10:07.128Z,5.20
2018-04-28T06:15:59.492Z,8.87
2018-04-28T06:18:37.712Z,6.50
2018-04-28T06:21:05.848Z,8.57
2018-04-28T06:23:33.966Z,6.27
2018-04-28T06:26:02.136Z,10.60
2018-04-28T06:28:30.268Z,11.13
2018-04-28T06:30:59.152Z,6.83
2018-04-28T06:33:27.276Z,7.47
2018-04-28T06:35:55.430Z,9.73
2018-04-28T06:38:23.572Z,7.73
2018-04-28T06:40:51.889Z,10.23
2018-04-28T06:43:20.011Z,9.63
2018-04-28T06:45:48.173Z,10.63
2018-04-28T06:48:16.327Z,9.20
2018-04-28T06:50:44.457Z,8.73
2018-04-28T06:53:13.353Z,6.67
2018-04-28T06:55:42.395Z,7.13
2018-04-28T06:58:10.545Z,7.70
2018-04-28T07:00:38.668Z,8.53
2018-04-28T07:03:06.799Z,9.63
2018-04-28T07:05:34.931Z,5.47
2018-04-28T07:08:03.893Z,8.27
2018-04-28T07:10:32.016Z,7.57
2018-04-28T07:13:00.155Z,6.67
2018-04-28T07:15:28.299Z,10.10
2018-04-28T07:17:56.451Z,7.20
2018-04-28T07:20:24.610Z,10.00
2018-04-28T07:22:52.745Z,7.80
2018-04-28T07:25:21.761Z,8.50
2018-04-28T07:27:50.660Z,8.90
2018-04-28T07:30:18.799Z,11.23
2018-04-28T07:32:46.927Z,7.77
2018-04-28T07:35:15.188Z,7.07
2018-04-28T07:37:43.249Z,10.57
2018-04-28T07:40:12.252Z,8.17
2018-04-28T07:42:40.389Z,8.10
2018-04-28T07:45:08.517Z,6.83
2018-04-28T07:47:36.726Z,6.53
2018-04-28T07:50:04.826Z,5.40
2018-04-28T07:52:33.726Z,7.03
2018-04-28T07:55:02.615Z,9.97
2018-04-28T07:57:31.512Z,10.30
2018-04-28T07:59:59.639Z,8.50
2018-04-28T08:02:27.774Z,6.80
2018-04-28T08:04:55.895Z,6.90
2018-04-28T08:07:24.037Z,7.83
2018-04-28T08:09:52.171Z,9.70
2018-04-28T08:12:20.297Z,10.37
2018-04-28T08:14:48.413Z,8.20
2018-04-28T08:17:17.333Z,9.20
2018-04-28T08:19:45.487Z,7.23
2018-04-28T08:22:13.621Z,9.73
2018-04-28T08:24:41.751Z,7.77
2018-04-28T08:27:09.897Z,8.43
2018-04-28T08:29:38.806Z,8.73
2018-04-28T08:32:06.940Z,12.93
2018-04-28T08:34:35.176Z,8.60
2018-04-28T08:37:03.389Z,7.27
2018-04-28T08:39:32.212Z,9.93
2018-04-28T08:42:00.344Z,8.80
2018-04-28T08:44:28.468Z,6.50
2018-04-28T08:46:56.613Z,9.23
2018-04-28T08:49:25.520Z,8.87
2018-04-28T08:51:53.648Z,8.63
2018-04-28T08:54:21.784Z,6.83
2018-04-28T08:56:49.916Z,9.37
2018-04-28T08:59:18.840Z,7.93
2018-04-28T09:01:47.136Z,6.33
2018-04-28T09:04:15.283Z,9.03
2018-04-28T09:06:45.990Z,7.53
2018-04-28T09:09:14.310Z,9.50
2018-04-28T09:11:42.428Z,7.70
2018-04-28T09:14:10.552Z,7.00
2018-04-28T09:16:38.728Z,6.70
2018-04-28T09:19:06.890Z,10.73
2018-04-28T09:21:35.022Z,9.03
2018-04-28T09:24:03.197Z,11.53
2018-04-28T09:26:31.352Z,5.73
2018-04-28T09:28:59.484Z,7.63
2018-04-28T09:31:27.616Z,6.20
2018-04-28T09:33:55.767Z,10.77
2018-04-28T09:36:23.948Z,9.23
2018-04-28T09:38:52.093Z,6.43
2018-04-28T09:41:20.256Z,7.17
2018-04-28T09:43:48.420Z,6.80
2018-04-28T09:46:16.670Z,6.37
2018-04-28T09:48:45.708Z,6.50
2018-04-28T09:51:13.825Z,8.93
2018-04-28T09:53:41.998Z,9.63
2018-04-28T09:56:10.137Z,6.33
2018-04-28T09:58:38.288Z,7.40
2018-04-28T10:01:07.338Z,5.50
2018-04-28T10:03:35.563Z,7.10
2018-04-28T10:06:03.712Z,7.07
2018-04-28T10:08:31.873Z,6.80
2018-04-28T10:11:00.771Z,6.90
2018-04-28T10:13:28.904Z,7.10
2018-04-28T10:15:57.133Z,7.67
2018-04-28T10:18:25.266Z,7.50
2018-04-28T10:20:53.391Z,6.30
2018-04-28T10:23:21.548Z,7.20
2018-04-28T10:25:49.672Z,5.87
2018-04-28T10:28:17.802Z,5.90
2018-04-28T10:30:46.032Z,8.67
2018-04-28T10:33:14.147Z,8.23
2018-04-28T10:35:42.287Z,4.87
2018-04-28T10:38:10.427Z,7.07
2018-04-28T10:40:38.573Z,8.30
2018-04-28T10:43:06.688Z,7.07
2018-04-28T10:45:34.837Z,5.80
2018-04-28T10:48:03.011Z,5.40
2018-04-28T10:50:31.223Z,5.37
2018-04-28T10:52:59.355Z,8.23
2018-04-28T10:55:27.472Z,8.03
2018-04-28T10:57:55.628Z,4.83
2018-04-28T11:00:23.729Z,7.17
2018-04-28T11:02:52.617Z,4.40
2018-04-28T11:05:21.547Z,7.37
2018-04-28T11:07:49.707Z,7.97
2018-04-28T11:10:17.863Z,7.80
2018-04-28T11:12:46.754Z,5.30
2018-04-28T11:15:15.651Z,7.10
2018-04-28T11:17:44.557Z,6.13
2018-04-28T11:20:12.685Z,5.67
2018-04-28T11:22:40.831Z,5.13
2018-04-28T11:25:08.947Z,4.63
2018-04-28T11:27:37.873Z,5.00
2018-04-28T11:30:06.046Z,5.80
2018-04-28T11:32:34.162Z,5.23
2018-04-28T11:35:02.288Z,6.00
2018-04-28T11:37:30.435Z,5.20
2018-04-28T11:39:59.363Z,6.83
2018-04-28T11:42:27.499Z,6.07
2018-04-28T11:44:56.391Z,5.27
2018-04-28T11:47:25.307Z,6.20
2018-04-28T11:49:53.445Z,6.87
2018-04-28T11:52:21.579Z,4.07
2018-04-28T11:54:49.743Z,5.33
2018-04-28T11:57:17.867Z,5.23
2018-04-28T11:59:46.008Z,6.73
2018-04-28T12:02:14.133Z,5.40
2018-04-28T12:04:43.084Z,4.27
2018-04-28T12:07:11.238Z,4.07
2018-04-28T12:09:39.369Z,4.80
2018-04-28T12:12:07.569Z,4.73
2018-04-28T12:14:35.676Z,5.07
2018-04-28T12:17:03.916Z,3.73
2018-04-28T12:19:32.036Z,3.77
2018-04-28T12:22:00.172Z,3.90
2018-04-28T12:24:28.315Z,5.23
2018-04-28T12:26:56.473Z,5.63
2018-04-28T12:29:25.380Z,4.30
2018-04-28T12:31:53.504Z,3.90
2018-04-28T12:34:21.616Z,5.17
2018-04-28T12:36:50.604Z,4.33
2018-04-28T12:39:18.684Z,5.80
2018-04-28T12:41:46.881Z,4.13
2018-04-28T12:44:15.028Z,5.10
2018-04-28T12:46:44.050Z,4.30
2018-04-28T12:49:12.208Z,4.70
2018-04-28T12:51:40.381Z,4.47
2018-04-28T12:54:09.252Z,6.27
2018-04-28T12:56:38.160Z,4.77
2018-04-28T12:59:07.176Z,4.53
2018-04-28T13:01:35.280Z,3.40
2018-04-28T13:04:03.399Z,3.23
2018-04-28T13:06:32.304Z,4.60
2018-04-28T13:09:00.433Z,3.07
2018-04-28T13:11:28.564Z,5.60
2018-04-28T13:13:56.719Z,4.27
2018-04-28T13:16:24.837Z,3.33
2018-04-28T13:18:54.495Z,3.93
2018-04-28T13:21:22.605Z,2.93
2018-04-28T13:23:50.744Z,4.63
2018-04-28T13:26:18.889Z,3.77
2018-04-28T13:28:47.787Z,4.43
2018-04-28T13:31:16.670Z,2.97
2018-04-28T13:33:45.573Z,2.20
2018-04-28T13:36:14.481Z,4.40
2018-04-28T13:38:42.665Z,3.33
2018-04-28T13:41:10.786Z,3.27
2018-04-28T13:43:39.012Z,3.17
2018-04-28T13:46:07.171Z,4.50
2018-04-28T13:48:35.327Z,4.47
2018-04-28T13:51:04.367Z,2.13
2018-04-28T13:53:32.474Z,2.90
2018-04-28T13:56:00.650Z,2.50
2018-04-28T13:58:28.744Z,3.70
2018-04-28T14:00:57.651Z,3.20
2018-04-28T14:03:25.779Z,2.63
2018-04-28T14:05:55.408Z,3.57
2018-04-28T14:08:23.523Z,1.93
2018-04-28T14:10:51.705Z,3.37
2018-04-28T14:13:19.822Z,2.80
2018-04-28T14:15:48.703Z,2.73
2018-04-28T14:18:16.861Z,2.23
2018-04-28T14:20:45.008Z,4.80
2018-04-28T14:23:13.114Z,1.90
2018-04-28T14:25:41.273Z,4.27
2018-04-28T14:28:09.387Z,2.30
2018-04-28T14:30:38.415Z,3.23
2018-04-28T14:33:06.511Z,3.47
2018-04-28T14:35:34.627Z,2.87
2018-04-28T14:38:03.551Z,3.60
2018-04-28T14:40:31.717Z,4.90
2018-04-28T14:42:59.835Z,2.60
2018-04-28T14:45:27.950Z,3.43
2018-04-28T14:47:56.078Z,5.40
2018-04-28T14:50:24.219Z,1.70
2018-04-28T14:52:52.440Z,1.70
2018-04-28T14:55:20.701Z,3.43
2018-04-28T14:57:48.828Z,2.53
2018-04-28T15:00:16.999Z,1.90
2018-04-28T15:02:45.214Z,3.77
2018-04-28T15:05:13.324Z,2.03
2018-04-28T15:07:42.211Z,2.73
2018-04-28T15:10:11.116Z,2.77
2018-04-28T15:12:40.035Z,1.93
2018-04-28T15:15:08.145Z,3.27
2018-04-28T15:17:36.259Z,3.27
2018-04-28T15:20:04.383Z,2.07
2018-04-28T15:22:32.524Z,2.07
2018-04-28T15:25:00.644Z,1.67
2018-04-28T15:27:30.292Z,2.13
2018-04-28T15:29:58.438Z,3.07
2018-04-28T15:32:26.636Z,2.63
2018-04-28T15:34:54.859Z,3.33
2018-04-28T15:37:23.674Z,3.27
2018-04-28T15:39:52.568Z,4.30
2018-04-28T15:42:21.493Z,3.03
2018-04-28T15:44:49.613Z,3.10
2018-04-28T15:47:17.836Z,3.30
2018-04-28T15:49:45.972Z,3.67
2018-04-28T15:52:14.900Z,2.43
2018-04-28T15:54:43.034Z,4.33
2018-04-28T15:57:11.156Z,2.23
2018-04-28T15:59:39.282Z,3.13
2018-04-28T16:02:07.431Z,2.23
2018-04-28T16:04:35.548Z,2.47
2018-04-28T16:07:04.446Z,3.27
2018-04-28T16:09:32.755Z,2.40
2018-04-28T16:12:00.900Z,2.50
2018-04-28T16:14:29.067Z,2.80
2018-04-28T16:16:57.950Z,3.50
2018-04-28T16:19:26.846Z,2.50
2018-04-28T16:21:55.765Z,2.63
2018-04-28T16:24:24.652Z,3.37
2018-04-28T16:26:52.792Z,2.57
2018-04-28T16:29:21.701Z,2.83
2018-04-28T16:31:49.827Z,2.67
2018-04-28T16:34:17.940Z,4.00
2018-04-28T16:36:46.124Z,2.97
2018-04-28T16:39:14.252Z,4.53
2018-04-28T16:41:42.375Z,2.93
2018-04-28T16:44:10.622Z,2.70
2018-04-28T16:46:38.698Z,3.50
2018-04-28T16:49:07.608Z,11.33
2018-04-28T16:51:35.731Z,2.47
2018-04-28T16:54:03.861Z,3.73
2018-04-28T16:56:32.008Z,2.97
2018-04-28T16:59:01.004Z,2.83
2018-04-28T17:01:29.045Z,4.50
2018-04-28T17:03:57.290Z,2.43
2018-04-28T17:06:25.452Z,1.73
2018-04-28T17:08:53.587Z,3.30
2018-04-28T17:11:22.499Z,3.17
2018-04-28T17:13:51.409Z,3.03
2018-04-28T17:16:19.524Z,2.93
2018-04-28T17:18:47.740Z,2.00
2018-04-28T17:21:15.885Z,3.60
2018-04-28T17:23:44.104Z,3.10
2018-04-28T17:26:12.283Z,2.47
2018-04-28T17:28:40.423Z,2.77
2018-04-28T17:31:09.307Z,2.50
2018-04-28T17:33:38.199Z,3.13
2018-04-28T17:36:07.191Z,3.17
2018-04-28T17:38:36.088Z,2.63
2018-04-28T17:41:05.029Z,3.63
2018-04-28T17:43:33.151Z,2.83
2018-04-28T17:46:02.036Z,2.70
2018-04-28T17:48:30.992Z,1.97
2018-04-28T17:50:59.113Z,3.33
2018-04-28T17:53:28.013Z,3.43
2018-04-28T17:55:56.137Z,2.20
2018-04-28T17:58:24.271Z,2.57
2018-04-28T18:00:52.445Z,2.47
2018-04-28T18:03:20.571Z,2.77
2018-04-28T18:05:48.689Z,2.87
2018-04-28T18:08:16.843Z,2.17
2018-04-28T18:10:45.730Z,3.27
2018-04-28T18:13:14.643Z,2.90
2018-04-28T18:15:42.792Z,2.10
2018-04-28T18:18:11.673Z,3.10
2018-04-28T18:20:40.600Z,4.37
2018-04-28T18:23:08.713Z,2.50
2018-04-28T18:25:36.857Z,1.73
2018-04-28T18:28:05.021Z,2.97
2018-04-28T18:30:33.135Z,1.83
2018-04-28T18:33:01.357Z,4.97
2018-04-28T18:35:29.493Z,3.00
2018-04-28T18:37:57.819Z,5.47
2018-04-28T18:40:26.021Z,3.90
2018-04-28T18:42:54.157Z,3.63
2018-04-28T18:45:22.284Z,2.33
2018-04-28T18:47:51.226Z,4.60
2018-04-28T18:50:19.391Z,5.40
2018-04-28T18:52:47.560Z,3.90
2018-04-28T18:55:15.756Z,6.17
2018-04-28T18:57:43.923Z,3.33
2018-04-28T19:00:12.057Z,4.87
2018-04-28T19:02:40.951Z,4.50
2018-04-28T19:05:09.892Z,3.60
2018-04-28T19:07:38.059Z,4.17
2018-04-28T19:10:06.188Z,5.63
2018-04-28T19:12:35.131Z,4.63
2018-04-28T19:15:03.264Z,5.40
2018-04-28T19:17:31.431Z,3.80
2018-04-28T19:20:00.337Z,3.53
2018-04-28T19:22:29.268Z,4.57
2018-04-28T19:24:57.436Z,3.03
2018-04-28T19:27:25.571Z,3.87
2018-04-28T19:29:55.446Z,3.20
2018-04-28T19:32:23.583Z,3.47
2018-04-28T19:34:51.718Z,3.87
2018-04-28T19:37:20.693Z,5.37
2018-04-28T19:39:49.642Z,4.40
2018-04-28T19:42:17.772Z,3.80
2018-04-28T19:44:46.658Z,6.67
2018-04-28T19:47:15.556Z,4.87
2018-04-28T19:49:44.484Z,5.07
2018-04-28T19:52:12.766Z,3.60
2018-04-28T19:54:40.890Z,4.53
2018-04-28T19:57:09.786Z,5.10
2018-04-28T19:59:38.712Z,5.13
2018-04-28T20:02:06.849Z,4.37
2018-04-28T20:04:35.744Z,6.90
2018-04-28T20:07:04.651Z,9.70
2018-04-28T20:09:32.784Z,6.87
2018-04-28T20:12:00.917Z,8.33
2018-04-28T20:14:29.059Z,7.63
2018-04-28T20:16:57.975Z,6.20
2018-04-28T20:19:26.155Z,6.40
2018-04-28T20:22:00.271Z,8.07
2018-04-28T20:24:40.521Z,6.27
2018-04-28T20:27:08.668Z,7.37
2018-04-28T20:29:37.559Z,6.70
2018-04-28T20:32:06.436Z,7.90
2018-04-28T20:34:35.349Z,7.13
2018-04-28T20:37:04.247Z,6.73
2018-04-28T20:39:32.373Z,8.10
2018-04-28T20:42:00.529Z,7.60
2018-04-28T20:44:28.782Z,5.93
2018-04-28T20:46:56.963Z,6.73
2018-04-28T20:49:25.132Z,8.27
2018-04-28T20:51:53.291Z,6.40
2018-04-28T20:54:21.416Z,9.73
2018-04-28T20:56:49.653Z,9.40
2018-04-28T20:59:17.816Z,10.60
2018-04-28T21:01:45.931Z,11.33
2018-04-28T21:04:14.072Z,9.63
2018-04-28T21:06:42.237Z,14.87
2018-04-28T21:09:10.419Z,53.93
2018-04-28T21:11:38.627Z,15.87
2018-04-28T21:14:06.856Z,25.50
2018-04-28T21:16:35.038Z,32.77
2018-04-28T21:19:03.263Z,15.50
2018-04-28T21:21:32.090Z,10.03
2018-04-28T21:24:00.259Z,10.37
2018-04-28T21:26:28.413Z,8.23
2018-04-28T21:28:57.364Z,9.37
2018-04-28T21:31:25.504Z,8.00
2018-04-28T21:33:53.707Z,9.77
2018-04-28T21:36:21.863Z,11.80
2018-04-28T21:38:50.053Z,10.17
2018-04-28T21:41:18.177Z,8.60
2018-04-28T21:43:47.065Z,9.53
2018-04-28T21:46:15.978Z,10.40
2018-04-28T21:48:44.240Z,9.07
2018-04-28T21:51:13.160Z,9.00
2018-04-28T21:53:41.272Z,10.03
2018-04-28T21:56:09.416Z,8.97
2018-04-28T21:58:37.553Z,9.50
2018-04-28T22:01:06.452Z,7.60
2018-04-28T22:03:34.664Z,27.30
2018-04-28T22:06:03.025Z,26.67
2018-04-28T22:08:31.192Z,12.63
2018-04-28T22:10:59.328Z,31.13
2018-04-28T22:13:28.240Z,32.17
2018-04-28T22:15:56.392Z,47.50
2018-04-28T22:18:25.308Z,16.20
2018-04-28T22:20:53.474Z,10.77
2018-04-28T22:23:21.624Z,7.60
2018-04-28T22:25:50.548Z,17.00
2018-04-28T22:28:18.737Z,9.17
2018-04-28T22:30:46.880Z,10.20
2018-04-28T22:33:15.779Z,23.97
2018-04-28T22:35:43.960Z,32.23
2018-04-28T22:38:12.116Z,37.83
2018-04-28T22:40:41.010Z,20.50
2018-04-28T22:43:10.037Z,15.03
2018-04-28T22:45:38.210Z,10.70
2018-04-28T22:48:06.340Z,12.10
2018-04-28T22:50:35.318Z,10.10
2018-04-28T22:53:03.420Z,9.20
2018-04-28T22:55:31.551Z,12.83
2018-04-28T22:58:00.596Z,12.02
2018-04-28T23:00:28.716Z,12.00
2018-04-28T23:02:58.380Z,15.53
2018-04-28T23:05:26.667Z,15.43
2018-04-28T23:07:54.796Z,11.63
2018-04-28T23:10:23.706Z,17.53
2018-04-28T23:12:51.836Z,20.13
2018-04-28T23:15:21.510Z,12.20
2018-04-28T23:17:49.664Z,10.15
2018-04-28T23:20:18.560Z,11.73
2018-04-28T23:22:46.736Z,11.77
2018-04-28T23:25:14.902Z,11.97
2018-04-28T23:27:43.036Z,12.57
2018-04-28T23:30:12.688Z,13.17
2018-04-28T23:32:40.829Z,13.50
2018-04-28T23:35:09.730Z,12.75
2018-04-28T23:37:38.638Z,12.00
2018-04-28T23:40:06.799Z,17.42
2018-04-28T23:42:35.705Z,17.95
2018-04-28T23:45:03.867Z,18.73
2018-04-28T23:47:32.033Z,20.10
2018-04-28T23:50:00.951Z,25.90
2018-04-28T23:52:29.089Z,24.70
2018-04-28T23:54:57.983Z,26.37
2018-04-28T23:57:26.899Z,24.67
2018-04-28T23:59:55.047Z,27.37
